sensor_id;sensor_type;location;lat;lon;timestamp;temperature;humidity
44982;DHT22;30716;41.740;-70.400;2023-04-28T00:02:16;23.90;42.10
44982;DHT22;30716;41.740;-70.400;2023-04-28T00:04:43;24.00;42.90
44982;DHT22;30716;41.740;-70.400;2023-04-28T00:07:10;24.00;42.40
44982;DHT22;30716;41.740;-70.400;2023-04-28T00:09:36;23.90;42.20
44982;DHT22;30716;41.740;-70.400;2023-04-28T00:12:02;23.90;42.20
44982;DHT22;30716;41.740;-70.400;2023-04-28T00:14:29;24.00;42.30
44982;DHT22;30716;41.740;-70.400;2023-04-28T00:16:55;23.90;42.30
44982;DHT22;30716;41.740;-70.400;2023-04-28T00:19:23;24.00;42.30
44982;DHT22;30716;41.740;-70.400;2023-04-28T00:21:49;23.90;42.40
44982;DHT22;30716;41.740;-70.400;2023-04-28T00:24:15;24.00;42.40
44982;DHT22;30716;41.740;-70.400;2023-04-28T00:26:41;24.00;42.30
44982;DHT22;30716;41.740;-70.400;2023-04-28T00:29:07;24.00;42.40
44982;DHT22;30716;41.740;-70.400;2023-04-28T00:31:34;24.00;42.40
44982;DHT22;30716;41.740;-70.400;2023-04-28T00:34:00;23.90;42.50
44982;DHT22;30716;41.740;-70.400;2023-04-28T00:36:26;24.00;42.50
44982;DHT22;30716;41.740;-70.400;2023-04-28T00:38:57;24.00;42.40
44982;DHT22;30716;41.740;-70.400;2023-04-28T00:41:23;24.00;42.50
44982;DHT22;30716;41.740;-70.400;2023-04-28T00:43:49;24.00;42.60
44982;DHT22;30716;41.740;-70.400;2023-04-28T00:46:26;23.90;42.60
44982;DHT22;30716;41.740;-70.400;2023-04-28T00:48:55;23.90;42.50
44982;DHT22;30716;41.740;-70.400;2023-04-28T00:51:21;24.00;42.60
44982;DHT22;30716;41.740;-70.400;2023-04-28T00:53:47;23.90;42.50
44982;DHT22;30716;41.740;-70.400;2023-04-28T00:56:14;24.00;42.60
44982;DHT22;30716;41.740;-70.400;2023-04-28T00:58:40;23.90;42.50
44982;DHT22;30716;41.740;-70.400;2023-04-28T01:01:08;23.90;42.50
44982;DHT22;30716;41.740;-70.400;2023-04-28T01:03:36;23.90;42.50
44982;DHT22;30716;41.740;-70.400;2023-04-28T01:06:07;23.90;42.50
44982;DHT22;30716;41.740;-70.400;2023-04-28T01:08:35;23.90;42.50
44982;DHT22;30716;41.740;-70.400;2023-04-28T01:11:02;23.90;42.50
44982;DHT22;30716;41.740;-70.400;2023-04-28T01:13:30;23.90;42.50
44982;DHT22;30716;41.740;-70.400;2023-04-28T01:15:56;23.90;42.60
44982;DHT22;30716;41.740;-70.400;2023-04-28T01:18:23;23.90;42.70
44982;DHT22;30716;41.740;-70.400;2023-04-28T01:20:50;23.90;42.60
44982;DHT22;30716;41.740;-70.400;2023-04-28T01:23:17;23.90;42.50
44982;DHT22;30716;41.740;-70.400;2023-04-28T01:25:43;23.90;42.50
44982;DHT22;30716;41.740;-70.400;2023-04-28T01:28:10;23.90;42.50
44982;DHT22;30716;41.740;-70.400;2023-04-28T01:30:37;23.90;42.60
44982;DHT22;30716;41.740;-70.400;2023-04-28T01:33:03;23.90;42.60
44982;DHT22;30716;41.740;-70.400;2023-04-28T01:35:29;23.90;42.70
44982;DHT22;30716;41.740;-70.400;2023-04-28T01:37:56;23.90;42.50
44982;DHT22;30716;41.740;-70.400;2023-04-28T01:40:23;23.90;42.50
44982;DHT22;30716;41.740;-70.400;2023-04-28T01:42:52;23.90;42.50
44982;DHT22;30716;41.740;-70.400;2023-04-28T01:45:19;23.90;42.50
44982;DHT22;30716;41.740;-70.400;2023-04-28T01:47:45;23.90;42.40
44982;DHT22;30716;41.740;-70.400;2023-04-28T01:50:11;23.90;42.30
44982;DHT22;30716;41.740;-70.400;2023-04-28T01:52:37;23.90;42.30
44982;DHT22;30716;41.740;-70.400;2023-04-28T01:55:04;23.90;42.30
44982;DHT22;30716;41.740;-70.400;2023-04-28T01:57:31;23.90;42.40
44982;DHT22;30716;41.740;-70.400;2023-04-28T01:59:59;23.90;42.50
44982;DHT22;30716;41.740;-70.400;2023-04-28T02:02:25;23.90;42.40
44982;DHT22;30716;41.740;-70.400;2023-04-28T02:04:51;23.90;42.30
44982;DHT22;30716;41.740;-70.400;2023-04-28T02:07:17;23.90;42.40
44982;DHT22;30716;41.740;-70.400;2023-04-28T02:09:44;23.90;42.50
44982;DHT22;30716;41.740;-70.400;2023-04-28T02:12:11;23.90;42.40
44982;DHT22;30716;41.740;-70.400;2023-04-28T02:14:37;23.90;42.40
44982;DHT22;30716;41.740;-70.400;2023-04-28T02:17:03;23.90;42.30
44982;DHT22;30716;41.740;-70.400;2023-04-28T02:19:30;23.90;42.30
44982;DHT22;30716;41.740;-70.400;2023-04-28T02:21:56;23.90;43.30
44982;DHT22;30716;41.740;-70.400;2023-04-28T02:24:22;23.90;42.40
44982;DHT22;30716;41.740;-70.400;2023-04-28T02:26:49;23.90;42.40
44982;DHT22;30716;41.740;-70.400;2023-04-28T02:29:15;23.90;42.50
44982;DHT22;30716;41.740;-70.400;2023-04-28T02:31:42;23.90;42.30
44982;DHT22;30716;41.740;-70.400;2023-04-28T02:34:08;23.90;42.40
44982;DHT22;30716;41.740;-70.400;2023-04-28T02:36:34;23.90;42.30
44982;DHT22;30716;41.740;-70.400;2023-04-28T02:39:02;23.90;42.40
44982;DHT22;30716;41.740;-70.400;2023-04-28T02:41:29;23.90;42.40
44982;DHT22;30716;41.740;-70.400;2023-04-28T02:43:55;23.90;42.30
44982;DHT22;30716;41.740;-70.400;2023-04-28T02:46:22;23.90;42.50
44982;DHT22;30716;41.740;-70.400;2023-04-28T02:48:48;23.90;42.30
44982;DHT22;30716;41.740;-70.400;2023-04-28T02:51:14;23.90;42.20
44982;DHT22;30716;41.740;-70.400;2023-04-28T02:53:40;23.90;42.30
44982;DHT22;30716;41.740;-70.400;2023-04-28T02:56:06;23.90;42.30
44982;DHT22;30716;41.740;-70.400;2023-04-28T02:58:33;23.90;42.40
44982;DHT22;30716;41.740;-70.400;2023-04-28T03:01:00;23.90;42.40
44982;DHT22;30716;41.740;-70.400;2023-04-28T03:03:27;23.90;42.30
44982;DHT22;30716;41.740;-70.400;2023-04-28T03:05:53;23.90;42.40
44982;DHT22;30716;41.740;-70.400;2023-04-28T03:08:21;23.90;42.40
44982;DHT22;30716;41.740;-70.400;2023-04-28T03:10:47;23.80;42.30
44982;DHT22;30716;41.740;-70.400;2023-04-28T03:13:13;23.90;43.10
44982;DHT22;30716;41.740;-70.400;2023-04-28T03:15:40;23.80;42.30
44982;DHT22;30716;41.740;-70.400;2023-04-28T03:18:06;23.90;42.60
44982;DHT22;30716;41.740;-70.400;2023-04-28T03:20:33;23.90;42.40
44982;DHT22;30716;41.740;-70.400;2023-04-28T03:22:59;23.80;42.10
44982;DHT22;30716;41.740;-70.400;2023-04-28T03:25:27;23.90;42.10
44982;DHT22;30716;41.740;-70.400;2023-04-28T03:27:53;23.90;42.30
44982;DHT22;30716;41.740;-70.400;2023-04-28T03:30:19;23.90;42.30
44982;DHT22;30716;41.740;-70.400;2023-04-28T03:32:45;23.90;42.30
44982;DHT22;30716;41.740;-70.400;2023-04-28T03:35:12;23.80;42.30
44982;DHT22;30716;41.740;-70.400;2023-04-28T03:37:38;23.80;42.50
44982;DHT22;30716;41.740;-70.400;2023-04-28T03:40:05;23.80;42.40
44982;DHT22;30716;41.740;-70.400;2023-04-28T03:42:31;23.80;42.40
44982;DHT22;30716;41.740;-70.400;2023-04-28T03:44:57;23.80;42.40
44982;DHT22;30716;41.740;-70.400;2023-04-28T03:47:23;23.80;43.20
44982;DHT22;30716;41.740;-70.400;2023-04-28T03:49:49;23.80;42.40
44982;DHT22;30716;41.740;-70.400;2023-04-28T03:52:16;23.80;42.30
44982;DHT22;30716;41.740;-70.400;2023-04-28T03:54:42;23.70;42.40
44982;DHT22;30716;41.740;-70.400;2023-04-28T03:57:09;23.80;42.40
44982;DHT22;30716;41.740;-70.400;2023-04-28T03:59:35;23.80;42.40
44982;DHT22;30716;41.740;-70.400;2023-04-28T04:02:01;23.80;42.30
44982;DHT22;30716;41.740;-70.400;2023-04-28T04:04:27;23.70;42.30
44982;DHT22;30716;41.740;-70.400;2023-04-28T04:06:54;23.70;42.40
44982;DHT22;30716;41.740;-70.400;2023-04-28T04:09:20;23.70;42.40
44982;DHT22;30716;41.740;-70.400;2023-04-28T04:11:49;23.70;42.40
44982;DHT22;30716;41.740;-70.400;2023-04-28T04:14:15;23.70;42.30
44982;DHT22;30716;41.740;-70.400;2023-04-28T04:16:41;23.70;42.30
44982;DHT22;30716;41.740;-70.400;2023-04-28T04:19:08;23.80;42.30
44982;DHT22;30716;41.740;-70.400;2023-04-28T04:21:34;23.80;42.80
44982;DHT22;30716;41.740;-70.400;2023-04-28T04:24:00;23.70;42.30
44982;DHT22;30716;41.740;-70.400;2023-04-28T04:26:26;23.80;42.30
44982;DHT22;30716;41.740;-70.400;2023-04-28T04:28:52;23.70;42.20
44982;DHT22;30716;41.740;-70.400;2023-04-28T04:31:19;23.70;42.40
44982;DHT22;30716;41.740;-70.400;2023-04-28T04:33:45;23.70;42.30
44982;DHT22;30716;41.740;-70.400;2023-04-28T04:36:11;23.70;42.20
44982;DHT22;30716;41.740;-70.400;2023-04-28T04:38:37;23.80;42.30
44982;DHT22;30716;41.740;-70.400;2023-04-28T04:41:03;23.70;42.40
44982;DHT22;30716;41.740;-70.400;2023-04-28T04:43:30;23.80;42.50
44982;DHT22;30716;41.740;-70.400;2023-04-28T04:45:56;23.70;42.40
44982;DHT22;30716;41.740;-70.400;2023-04-28T04:48:22;23.70;42.20
44982;DHT22;30716;41.740;-70.400;2023-04-28T04:50:49;23.80;42.20
44982;DHT22;30716;41.740;-70.400;2023-04-28T04:53:15;23.80;42.30
44982;DHT22;30716;41.740;-70.400;2023-04-28T04:55:41;23.80;42.30
44982;DHT22;30716;41.740;-70.400;2023-04-28T04:58:07;23.90;42.20
44982;DHT22;30716;41.740;-70.400;2023-04-28T05:00:33;23.90;42.10
44982;DHT22;30716;41.740;-70.400;2023-04-28T05:03:00;23.90;42.00
44982;DHT22;30716;41.740;-70.400;2023-04-28T05:05:28;23.90;42.10
44982;DHT22;30716;41.740;-70.400;2023-04-28T05:07:55;23.90;41.90
44982;DHT22;30716;41.740;-70.400;2023-04-28T05:10:23;23.90;42.00
44982;DHT22;30716;41.740;-70.400;2023-04-28T05:12:49;23.90;42.00
44982;DHT22;30716;41.740;-70.400;2023-04-28T05:15:15;23.90;42.20
44982;DHT22;30716;41.740;-70.400;2023-04-28T05:17:41;23.90;42.10
44982;DHT22;30716;41.740;-70.400;2023-04-28T05:20:08;23.90;42.00
44982;DHT22;30716;41.740;-70.400;2023-04-28T05:22:34;23.90;42.00
44982;DHT22;30716;41.740;-70.400;2023-04-28T05:25:00;23.90;42.00
44982;DHT22;30716;41.740;-70.400;2023-04-28T05:27:27;23.90;42.00
44982;DHT22;30716;41.740;-70.400;2023-04-28T05:29:53;23.90;42.00
44982;DHT22;30716;41.740;-70.400;2023-04-28T05:32:19;23.90;42.10
44982;DHT22;30716;41.740;-70.400;2023-04-28T05:34:46;23.90;42.00
44982;DHT22;30716;41.740;-70.400;2023-04-28T05:37:15;24.00;42.00
44982;DHT22;30716;41.740;-70.400;2023-04-28T05:39:41;24.00;41.90
44982;DHT22;30716;41.740;-70.400;2023-04-28T05:42:07;24.00;41.90
44982;DHT22;30716;41.740;-70.400;2023-04-28T05:44:33;24.00;41.90
44982;DHT22;30716;41.740;-70.400;2023-04-28T05:46:59;24.00;42.00
44982;DHT22;30716;41.740;-70.400;2023-04-28T05:49:25;24.00;41.70
44982;DHT22;30716;41.740;-70.400;2023-04-28T05:51:52;24.00;41.70
44982;DHT22;30716;41.740;-70.400;2023-04-28T05:54:18;24.00;41.90
44982;DHT22;30716;41.740;-70.400;2023-04-28T05:56:44;24.00;41.90
44982;DHT22;30716;41.740;-70.400;2023-04-28T05:59:10;24.00;41.70
44982;DHT22;30716;41.740;-70.400;2023-04-28T06:01:36;24.10;41.80
44982;DHT22;30716;41.740;-70.400;2023-04-28T06:04:03;24.10;41.80
44982;DHT22;30716;41.740;-70.400;2023-04-28T06:06:29;24.10;41.70
44982;DHT22;30716;41.740;-70.400;2023-04-28T06:08:56;24.10;41.70
44982;DHT22;30716;41.740;-70.400;2023-04-28T06:11:23;24.10;41.70
44982;DHT22;30716;41.740;-70.400;2023-04-28T06:13:49;24.10;42.50
44982;DHT22;30716;41.740;-70.400;2023-04-28T06:16:16;24.10;41.80
44982;DHT22;30716;41.740;-70.400;2023-04-28T06:18:43;24.10;41.80
44982;DHT22;30716;41.740;-70.400;2023-04-28T06:21:11;24.10;41.70
44982;DHT22;30716;41.740;-70.400;2023-04-28T06:23:38;24.10;41.70
44982;DHT22;30716;41.740;-70.400;2023-04-28T06:26:05;24.10;41.70
44982;DHT22;30716;41.740;-70.400;2023-04-28T06:28:31;24.10;41.70
44982;DHT22;30716;41.740;-70.400;2023-04-28T06:30:57;24.10;42.50
44982;DHT22;30716;41.740;-70.400;2023-04-28T06:33:24;24.20;41.80
44982;DHT22;30716;41.740;-70.400;2023-04-28T06:35:51;24.20;41.70
44982;DHT22;30716;41.740;-70.400;2023-04-28T06:38:17;24.20;41.70
44982;DHT22;30716;41.740;-70.400;2023-04-28T06:40:44;24.20;41.80
44982;DHT22;30716;41.740;-70.400;2023-04-28T06:43:11;24.10;41.70
44982;DHT22;30716;41.740;-70.400;2023-04-28T06:45:38;24.20;41.70
44982;DHT22;30716;41.740;-70.400;2023-04-28T06:48:04;24.20;41.70
44982;DHT22;30716;41.740;-70.400;2023-04-28T06:50:31;24.20;41.70
44982;DHT22;30716;41.740;-70.400;2023-04-28T06:52:57;24.20;41.50
44982;DHT22;30716;41.740;-70.400;2023-04-28T06:55:26;24.20;41.50
44982;DHT22;30716;41.740;-70.400;2023-04-28T06:57:52;24.20;41.60
44982;DHT22;30716;41.740;-70.400;2023-04-28T07:00:18;24.20;41.50
44982;DHT22;30716;41.740;-70.400;2023-04-28T07:02:44;24.20;41.60
44982;DHT22;30716;41.740;-70.400;2023-04-28T07:05:10;24.20;41.50
44982;DHT22;30716;41.740;-70.400;2023-04-28T07:07:37;24.20;41.60
44982;DHT22;30716;41.740;-70.400;2023-04-28T07:10:04;24.20;41.50
44982;DHT22;30716;41.740;-70.400;2023-04-28T07:12:30;24.30;42.20
44982;DHT22;30716;41.740;-70.400;2023-04-28T07:14:56;24.30;41.70
44982;DHT22;30716;41.740;-70.400;2023-04-28T07:17:23;24.30;41.50
44982;DHT22;30716;41.740;-70.400;2023-04-28T07:19:49;24.30;41.60
44982;DHT22;30716;41.740;-70.400;2023-04-28T07:22:16;24.30;41.70
44982;DHT22;30716;41.740;-70.400;2023-04-28T07:24:43;24.30;41.60
44982;DHT22;30716;41.740;-70.400;2023-04-28T07:27:09;24.30;41.70
44982;DHT22;30716;41.740;-70.400;2023-04-28T07:29:35;24.30;41.60
44982;DHT22;30716;41.740;-70.400;2023-04-28T07:32:02;24.30;41.70
44982;DHT22;30716;41.740;-70.400;2023-04-28T07:34:34;24.30;41.60
44982;DHT22;30716;41.740;-70.400;2023-04-28T07:37:03;24.30;41.70
44982;DHT22;30716;41.740;-70.400;2023-04-28T07:39:33;24.30;41.70
44982;DHT22;30716;41.740;-70.400;2023-04-28T07:42:00;24.30;41.70
44982;DHT22;30716;41.740;-70.400;2023-04-28T07:44:28;24.30;41.60
44982;DHT22;30716;41.740;-70.400;2023-04-28T07:46:55;24.30;41.60
44982;DHT22;30716;41.740;-70.400;2023-04-28T07:49:21;24.30;41.40
44982;DHT22;30716;41.740;-70.400;2023-04-28T07:51:48;24.30;41.60
44982;DHT22;30716;41.740;-70.400;2023-04-28T07:54:14;24.30;41.70
44982;DHT22;30716;41.740;-70.400;2023-04-28T07:56:41;24.30;41.60
44982;DHT22;30716;41.740;-70.400;2023-04-28T07:59:10;24.30;41.60
44982;DHT22;30716;41.740;-70.400;2023-04-28T08:01:36;24.30;41.50
44982;DHT22;30716;41.740;-70.400;2023-04-28T08:04:02;24.30;41.50
44982;DHT22;30716;41.740;-70.400;2023-04-28T08:06:28;24.30;41.30
44982;DHT22;30716;41.740;-70.400;2023-04-28T08:08:54;24.40;41.40
44982;DHT22;30716;41.740;-70.400;2023-04-28T08:11:21;24.30;41.40
44982;DHT22;30716;41.740;-70.400;2023-04-28T08:13:47;24.30;41.40
44982;DHT22;30716;41.740;-70.400;2023-04-28T08:16:14;24.30;41.50
44982;DHT22;30716;41.740;-70.400;2023-04-28T08:18:43;24.30;41.50
44982;DHT22;30716;41.740;-70.400;2023-04-28T08:21:10;24.30;41.50
44982;DHT22;30716;41.740;-70.400;2023-04-28T08:23:36;24.30;41.40
44982;DHT22;30716;41.740;-70.400;2023-04-28T08:26:03;24.30;41.60
44982;DHT22;30716;41.740;-70.400;2023-04-28T08:28:29;24.20;41.50
44982;DHT22;30716;41.740;-70.400;2023-04-28T08:30:56;24.20;41.60
44982;DHT22;30716;41.740;-70.400;2023-04-28T08:33:23;24.20;41.60
44982;DHT22;30716;41.740;-70.400;2023-04-28T08:35:50;24.20;41.70
44982;DHT22;30716;41.740;-70.400;2023-04-28T08:38:16;24.20;41.70
44982;DHT22;30716;41.740;-70.400;2023-04-28T08:40:43;24.20;41.70
44982;DHT22;30716;41.740;-70.400;2023-04-28T08:43:09;24.20;41.70
44982;DHT22;30716;41.740;-70.400;2023-04-28T08:45:40;24.10;41.70
44982;DHT22;30716;41.740;-70.400;2023-04-28T08:48:21;24.20;41.70
44982;DHT22;30716;41.740;-70.400;2023-04-28T08:50:52;24.10;41.70
44982;DHT22;30716;41.740;-70.400;2023-04-28T08:53:25;24.10;41.70
44982;DHT22;30716;41.740;-70.400;2023-04-28T08:55:55;24.10;41.80
44982;DHT22;30716;41.740;-70.400;2023-04-28T08:58:26;24.10;41.80
44982;DHT22;30716;41.740;-70.400;2023-04-28T09:00:53;24.10;41.80
44982;DHT22;30716;41.740;-70.400;2023-04-28T09:03:19;24.10;41.80
44982;DHT22;30716;41.740;-70.400;2023-04-28T09:05:46;24.10;41.70
44982;DHT22;30716;41.740;-70.400;2023-04-28T09:08:12;24.10;41.80
44982;DHT22;30716;41.740;-70.400;2023-04-28T09:10:39;24.10;41.80
44982;DHT22;30716;41.740;-70.400;2023-04-28T09:13:06;24.10;41.70
44982;DHT22;30716;41.740;-70.400;2023-04-28T09:15:34;24.10;41.70
44982;DHT22;30716;41.740;-70.400;2023-04-28T09:18:02;24.10;41.70
44982;DHT22;30716;41.740;-70.400;2023-04-28T09:20:30;24.10;41.80
44982;DHT22;30716;41.740;-70.400;2023-04-28T09:23:12;24.10;41.80
44982;DHT22;30716;41.740;-70.400;2023-04-28T09:25:39;24.10;41.70
44982;DHT22;30716;41.740;-70.400;2023-04-28T09:28:21;24.00;41.70
44982;DHT22;30716;41.740;-70.400;2023-04-28T09:30:47;24.10;41.80
44982;DHT22;30716;41.740;-70.400;2023-04-28T09:33:13;24.10;41.70
44982;DHT22;30716;41.740;-70.400;2023-04-28T09:35:44;24.10;41.60
44982;DHT22;30716;41.740;-70.400;2023-04-28T09:38:11;24.10;41.50
44982;DHT22;30716;41.740;-70.400;2023-04-28T09:40:58;24.10;41.60
44982;DHT22;30716;41.740;-70.400;2023-04-28T09:45:51;24.10;41.50
44982;DHT22;30716;41.740;-70.400;2023-04-28T10:01:45;24.10;41.50
44982;DHT22;30716;41.740;-70.400;2023-04-28T10:04:11;24.10;41.80
44982;DHT22;30716;41.740;-70.400;2023-04-28T10:06:38;24.10;41.60
44982;DHT22;30716;41.740;-70.400;2023-04-28T10:09:05;24.10;41.50
44982;DHT22;30716;41.740;-70.400;2023-04-28T10:11:32;24.10;41.70
44982;DHT22;30716;41.740;-70.400;2023-04-28T10:13:59;24.10;41.50
44982;DHT22;30716;41.740;-70.400;2023-04-28T10:16:29;24.20;42.40
44982;DHT22;30716;41.740;-70.400;2023-04-28T10:18:56;24.20;41.60
44982;DHT22;30716;41.740;-70.400;2023-04-28T10:21:24;24.20;41.60
44982;DHT22;30716;41.740;-70.400;2023-04-28T10:26:57;24.20;41.50
44982;DHT22;30716;41.740;-70.400;2023-04-28T10:29:25;24.20;41.60
44982;DHT22;30716;41.740;-70.400;2023-04-28T10:34:42;24.30;41.60
44982;DHT22;30716;41.740;-70.400;2023-04-28T10:37:08;24.20;41.50
44982;DHT22;30716;41.740;-70.400;2023-04-28T10:39:38;24.30;41.60
44982;DHT22;30716;41.740;-70.400;2023-04-28T10:42:04;24.30;41.60
44982;DHT22;30716;41.740;-70.400;2023-04-28T10:47:08;24.30;41.40
44982;DHT22;30716;41.740;-70.400;2023-04-28T10:55:32;24.40;41.50
44982;DHT22;30716;41.740;-70.400;2023-04-28T11:00:46;24.40;41.60
44982;DHT22;30716;41.740;-70.400;2023-04-28T11:06:26;24.40;41.50
44982;DHT22;30716;41.740;-70.400;2023-04-28T11:09:00;24.40;41.40
44982;DHT22;30716;41.740;-70.400;2023-04-28T11:11:28;24.40;41.30
44982;DHT22;30716;41.740;-70.400;2023-04-28T11:16:53;24.40;41.50
44982;DHT22;30716;41.740;-70.400;2023-04-28T11:19:25;24.40;41.60
44982;DHT22;30716;41.740;-70.400;2023-04-28T11:21:53;24.40;41.50
44982;DHT22;30716;41.740;-70.400;2023-04-28T11:24:21;24.40;41.60
44982;DHT22;30716;41.740;-70.400;2023-04-28T11:26:48;24.30;41.40
44982;DHT22;30716;41.740;-70.400;2023-04-28T11:29:14;24.40;41.50
44982;DHT22;30716;41.740;-70.400;2023-04-28T11:31:48;24.40;41.60
44982;DHT22;30716;41.740;-70.400;2023-04-28T11:34:19;24.40;41.60
44982;DHT22;30716;41.740;-70.400;2023-04-28T11:36:46;24.30;41.50
44982;DHT22;30716;41.740;-70.400;2023-04-28T11:39:13;24.30;41.40
44982;DHT22;30716;41.740;-70.400;2023-04-28T11:41:41;24.30;41.40
44982;DHT22;30716;41.740;-70.400;2023-04-28T11:46:44;24.30;41.50
44982;DHT22;30716;41.740;-70.400;2023-04-28T11:49:11;24.30;41.50
44982;DHT22;30716;41.740;-70.400;2023-04-28T11:51:39;24.30;41.60
44982;DHT22;30716;41.740;-70.400;2023-04-28T11:54:08;24.30;41.50
44982;DHT22;30716;41.740;-70.400;2023-04-28T11:56:40;24.30;41.60
44982;DHT22;30716;41.740;-70.400;2023-04-28T11:59:09;24.30;41.60
44982;DHT22;30716;41.740;-70.400;2023-04-28T12:01:53;24.30;41.50
44982;DHT22;30716;41.740;-70.400;2023-04-28T12:09:32;24.20;41.50
44982;DHT22;30716;41.740;-70.400;2023-04-28T12:12:02;24.20;41.60
44982;DHT22;30716;41.740;-70.400;2023-04-28T12:14:30;24.20;41.60
44982;DHT22;30716;41.740;-70.400;2023-04-28T12:17:00;24.20;41.60
44982;DHT22;30716;41.740;-70.400;2023-04-28T12:19:27;24.20;41.50
44982;DHT22;30716;41.740;-70.400;2023-04-28T12:22:06;24.20;41.50
44982;DHT22;30716;41.740;-70.400;2023-04-28T12:24:33;24.20;41.60
44982;DHT22;30716;41.740;-70.400;2023-04-28T12:27:19;24.20;41.50
44982;DHT22;30716;41.740;-70.400;2023-04-28T12:29:50;24.20;41.60
44982;DHT22;30716;41.740;-70.400;2023-04-28T12:32:17;24.20;41.50
44982;DHT22;30716;41.740;-70.400;2023-04-28T12:34:45;24.20;41.50
44982;DHT22;30716;41.740;-70.400;2023-04-28T12:37:12;24.20;41.50
44982;DHT22;30716;41.740;-70.400;2023-04-28T12:39:39;24.20;41.40
44982;DHT22;30716;41.740;-70.400;2023-04-28T12:42:06;24.20;41.50
44982;DHT22;30716;41.740;-70.400;2023-04-28T12:44:36;24.20;41.50
44982;DHT22;30716;41.740;-70.400;2023-04-28T12:47:06;24.20;41.50
44982;DHT22;30716;41.740;-70.400;2023-04-28T12:49:33;24.20;41.50
44982;DHT22;30716;41.740;-70.400;2023-04-28T12:52:00;24.20;41.30
44982;DHT22;30716;41.740;-70.400;2023-04-28T12:54:26;24.20;41.50
44982;DHT22;30716;41.740;-70.400;2023-04-28T12:56:52;24.20;41.40
44982;DHT22;30716;41.740;-70.400;2023-04-28T12:59:19;24.20;42.20
44982;DHT22;30716;41.740;-70.400;2023-04-28T13:01:46;24.20;41.50
44982;DHT22;30716;41.740;-70.400;2023-04-28T13:04:12;24.20;41.60
44982;DHT22;30716;41.740;-70.400;2023-04-28T13:06:39;24.20;41.60
44982;DHT22;30716;41.740;-70.400;2023-04-28T13:09:15;24.20;41.60
44982;DHT22;30716;41.740;-70.400;2023-04-28T13:11:42;24.20;41.80
44982;DHT22;30716;41.740;-70.400;2023-04-28T13:14:08;24.20;41.40
44982;DHT22;30716;41.740;-70.400;2023-04-28T13:16:35;24.20;41.50
44982;DHT22;30716;41.740;-70.400;2023-04-28T13:19:02;24.20;41.60
44982;DHT22;30716;41.740;-70.400;2023-04-28T13:21:31;24.20;41.60
44982;DHT22;30716;41.740;-70.400;2023-04-28T13:23:57;24.30;41.60
44982;DHT22;30716;41.740;-70.400;2023-04-28T13:26:23;24.20;42.20
44982;DHT22;30716;41.740;-70.400;2023-04-28T13:28:51;24.30;41.50
44982;DHT22;30716;41.740;-70.400;2023-04-28T13:31:18;24.20;41.30
44982;DHT22;30716;41.740;-70.400;2023-04-28T13:33:44;24.30;41.50
44982;DHT22;30716;41.740;-70.400;2023-04-28T13:36:10;24.30;41.70
44982;DHT22;30716;41.740;-70.400;2023-04-28T13:38:37;24.30;41.50
44982;DHT22;30716;41.740;-70.400;2023-04-28T13:41:03;24.20;41.30
44982;DHT22;30716;41.740;-70.400;2023-04-28T13:43:30;24.20;41.30
44982;DHT22;30716;41.740;-70.400;2023-04-28T13:45:56;24.20;41.50
44982;DHT22;30716;41.740;-70.400;2023-04-28T13:48:23;24.20;41.60
44982;DHT22;30716;41.740;-70.400;2023-04-28T13:50:49;24.20;41.60
44982;DHT22;30716;41.740;-70.400;2023-04-28T13:53:15;24.20;41.60
44982;DHT22;30716;41.740;-70.400;2023-04-28T13:55:42;24.20;41.70
44982;DHT22;30716;41.740;-70.400;2023-04-28T13:58:08;24.20;41.60
44982;DHT22;30716;41.740;-70.400;2023-04-28T14:00:34;24.20;41.60
44982;DHT22;30716;41.740;-70.400;2023-04-28T14:03:02;24.20;41.80
44982;DHT22;30716;41.740;-70.400;2023-04-28T14:05:28;24.20;41.70
44982;DHT22;30716;41.740;-70.400;2023-04-28T14:07:55;24.20;41.70
44982;DHT22;30716;41.740;-70.400;2023-04-28T14:10:22;24.20;41.80
44982;DHT22;30716;41.740;-70.400;2023-04-28T14:12:48;24.10;41.80
44982;DHT22;30716;41.740;-70.400;2023-04-28T14:15:15;24.10;41.70
44982;DHT22;30716;41.740;-70.400;2023-04-28T14:17:42;24.10;41.80
44982;DHT22;30716;41.740;-70.400;2023-04-28T14:20:08;24.10;41.80
44982;DHT22;30716;41.740;-70.400;2023-04-28T14:22:37;24.10;41.80
44982;DHT22;30716;41.740;-70.400;2023-04-28T14:25:04;24.10;41.70
44982;DHT22;30716;41.740;-70.400;2023-04-28T14:27:30;24.10;41.70
44982;DHT22;30716;41.740;-70.400;2023-04-28T14:29:58;24.10;41.70
44982;DHT22;30716;41.740;-70.400;2023-04-28T14:32:24;24.10;41.80
44982;DHT22;30716;41.740;-70.400;2023-04-28T14:34:50;24.10;41.70
44982;DHT22;30716;41.740;-70.400;2023-04-28T14:37:16;24.10;41.70
44982;DHT22;30716;41.740;-70.400;2023-04-28T14:39:43;24.10;41.80
44982;DHT22;30716;41.740;-70.400;2023-04-28T14:42:09;24.10;41.70
44982;DHT22;30716;41.740;-70.400;2023-04-28T14:44:37;24.10;41.80
44982;DHT22;30716;41.740;-70.400;2023-04-28T14:47:03;24.10;41.80
44982;DHT22;30716;41.740;-70.400;2023-04-28T14:49:29;24.10;41.80
44982;DHT22;30716;41.740;-70.400;2023-04-28T14:51:56;24.10;41.80
44982;DHT22;30716;41.740;-70.400;2023-04-28T14:54:22;24.10;41.90
44982;DHT22;30716;41.740;-70.400;2023-04-28T14:56:48;24.10;41.90
44982;DHT22;30716;41.740;-70.400;2023-04-28T14:59:18;24.10;41.80
44982;DHT22;30716;41.740;-70.400;2023-04-28T15:01:44;24.10;41.80
44982;DHT22;30716;41.740;-70.400;2023-04-28T15:04:10;24.10;41.80
44982;DHT22;30716;41.740;-70.400;2023-04-28T15:06:37;24.10;41.80
44982;DHT22;30716;41.740;-70.400;2023-04-28T15:09:03;24.10;41.80
44982;DHT22;30716;41.740;-70.400;2023-04-28T15:11:31;24.10;41.70
44982;DHT22;30716;41.740;-70.400;2023-04-28T15:13:57;24.10;41.80
44982;DHT22;30716;41.740;-70.400;2023-04-28T15:16:23;24.10;41.70
44982;DHT22;30716;41.740;-70.400;2023-04-28T15:18:49;24.10;41.70
44982;DHT22;30716;41.740;-70.400;2023-04-28T15:21:15;24.10;41.80
44982;DHT22;30716;41.740;-70.400;2023-04-28T15:23:41;24.10;41.70
44982;DHT22;30716;41.740;-70.400;2023-04-28T15:26:08;24.10;41.70
44982;DHT22;30716;41.740;-70.400;2023-04-28T15:28:35;24.00;41.70
44982;DHT22;30716;41.740;-70.400;2023-04-28T15:31:01;24.10;41.80
44982;DHT22;30716;41.740;-70.400;2023-04-28T15:33:29;24.00;41.80
44982;DHT22;30716;41.740;-70.400;2023-04-28T15:35:56;24.00;41.80
44982;DHT22;30716;41.740;-70.400;2023-04-28T15:38:22;24.00;41.90
44982;DHT22;30716;41.740;-70.400;2023-04-28T15:40:48;24.00;41.80
44982;DHT22;30716;41.740;-70.400;2023-04-28T15:43:14;24.00;41.90
44982;DHT22;30716;41.740;-70.400;2023-04-28T15:45:40;24.00;41.80
44982;DHT22;30716;41.740;-70.400;2023-04-28T15:48:07;24.00;41.80
44982;DHT22;30716;41.740;-70.400;2023-04-28T15:50:35;24.00;41.80